Terminal Aerodrome Forecast
Issued by NWS

Home | Current Version | Previous Version | Text Only | Print | Product List | Glossary On
Versions: 1 2 3 4 5 6 7 8 9 10 11 12 13 14 15 16 17 18 19 20 21 22 23 24 25 26 27 28 29 30 31 32 33 34
000
FTUS45 KSLC 020538
TAFSGU
TAF
KSGU 020538Z 0206/0306 VRB05KT P6SM BKN140
     FM021400 12007KT P6SM VCSH SCT090 BKN120
     FM021900 22010KT P6SM VCSH FEW100 BKN130
     FM022200 25010KT P6SM SCT130
     FM030400 VRB04KT P6SM FEW130
      AMD LTD TO CLD VIS AND WIND=

USA.gov is the U.S. government's official web portal to all federal, state and local government web resources and services.